sensor_id;sensor_type;location;lat;lon;timestamp;pressure;altitude;pressure_sealevel;temperature;humidity
28167;BME280;15455;53.376;-6.262;2022-07-01T00:01:11;100979.81;;;12.64;100.00
28167;BME280;15455;53.376;-6.262;2022-07-01T00:03:56;100988.53;;;12.61;100.00
28167;BME280;15455;53.376;-6.262;2022-07-01T00:06:42;100989.44;;;12.57;100.00
28167;BME280;15455;53.376;-6.262;2022-07-01T00:09:28;100986.84;;;12.56;100.00
28167;BME280;15455;53.376;-6.262;2022-07-01T00:12:13;100987.72;;;12.51;100.00
28167;BME280;15455;53.376;-6.262;2022-07-01T00:14:59;100990.38;;;12.50;100.00
28167;BME280;15455;53.376;-6.262;2022-07-01T00:17:44;100996.47;;;12.49;100.00
28167;BME280;15455;53.376;-6.262;2022-07-01T00:20:30;100995.66;;;12.44;100.00
28167;BME280;15455;53.376;-6.262;2022-07-01T00:23:17;100982.59;;;12.41;100.00
28167;BME280;15455;53.376;-6.262;2022-07-01T00:26:02;100990.41;;;12.39;100.00
28167;BME280;15455;53.376;-6.262;2022-07-01T00:28:48;100993.03;;;12.38;100.00
28167;BME280;15455;53.376;-6.262;2022-07-01T00:31:33;100981.72;;;12.34;100.00
28167;BME280;15455;53.376;-6.262;2022-07-01T00:34:20;100981.75;;;12.31;100.00
28167;BME280;15455;53.376;-6.262;2022-07-01T00:37:05;100987.00;;;12.31;100.00
28167;BME280;15455;53.376;-6.262;2022-07-01T00:39:50;100989.63;;;12.28;100.00
28167;BME280;15455;53.376;-6.262;2022-07-01T00:42:39;100994.88;;;12.26;100.00
28167;BME280;15455;53.376;-6.262;2022-07-01T00:45:26;100986.16;;;12.24;100.00
28167;BME280;15455;53.376;-6.262;2022-07-01T00:48:11;100990.53;;;12.24;100.00
28167;BME280;15455;53.376;-6.262;2022-07-01T00:50:57;100998.38;;;12.22;100.00
28167;BME280;15455;53.376;-6.262;2022-07-01T00:53:43;100997.50;;;12.22;100.00
28167;BME280;15455;53.376;-6.262;2022-07-01T00:56:31;100991.41;;;12.21;100.00
28167;BME280;15455;53.376;-6.262;2022-07-01T00:59:17;100999.25;;;12.21;100.00
28167;BME280;15455;53.376;-6.262;2022-07-01T01:02:03;101000.13;;;12.17;100.00
28167;BME280;15455;53.376;-6.262;2022-07-01T01:04:49;101003.63;;;12.18;100.00
28167;BME280;15455;53.376;-6.262;2022-07-01T01:07:34;100994.03;;;12.18;100.00
28167;BME280;15455;53.376;-6.262;2022-07-01T01:10:20;100998.41;;;12.14;100.00
28167;BME280;15455;53.376;-6.262;2022-07-01T01:13:09;101002.78;;;12.12;100.00
28167;BME280;15455;53.376;-6.262;2022-07-01T01:15:55;100996.69;;;12.10;100.00
28167;BME280;15455;53.376;-6.262;2022-07-01T01:18:41;101002.78;;;12.11;100.00
28167;BME280;15455;53.376;-6.262;2022-07-01T01:21:26;100998.44;;;12.07;100.00
28167;BME280;15455;53.376;-6.262;2022-07-01T01:24:12;101004.56;;;12.06;100.00
28167;BME280;15455;53.376;-6.262;2022-07-01T01:26:57;101009.78;;;12.06;100.00
28167;BME280;15455;53.376;-6.262;2022-07-01T01:29:43;101006.31;;;12.05;100.00
28167;BME280;15455;53.376;-6.262;2022-07-01T01:32:29;101012.41;;;12.04;100.00
28167;BME280;15455;53.376;-6.262;2022-07-01T01:35:14;101018.53;;;12.06;100.00
28167;BME280;15455;53.376;-6.262;2022-07-01T01:38:00;101019.38;;;12.07;100.00
28167;BME280;15455;53.376;-6.262;2022-07-01T01:40:45;101020.22;;;12.07;100.00
28167;BME280;15455;53.376;-6.262;2022-07-01T01:43:31;101021.13;;;12.06;100.00
28167;BME280;15455;53.376;-6.262;2022-07-01T01:46:20;101019.38;;;12.07;100.00
28167;BME280;15455;53.376;-6.262;2022-07-01T01:49:06;101022.00;;;12.05;100.00
28167;BME280;15455;53.376;-6.262;2022-07-01T01:51:52;101015.03;;;12.03;100.00
28167;BME280;15455;53.376;-6.262;2022-07-01T01:54:38;101031.59;;;12.05;100.00
28167;BME280;15455;53.376;-6.262;2022-07-01T01:57:24;101027.25;;;12.04;100.00
28167;BME280;15455;53.376;-6.262;2022-07-01T02:00:11;101022.88;;;12.04;100.00
28167;BME280;15455;53.376;-6.262;2022-07-01T02:02:56;101022.00;;;12.05;100.00
28167;BME280;15455;53.376;-6.262;2022-07-01T02:05:42;101026.38;;;12.03;100.00
28167;BME280;15455;53.376;-6.262;2022-07-01T02:08:31;101029.00;;;12.03;100.00
28167;BME280;15455;53.376;-6.262;2022-07-01T02:11:17;101023.75;;;12.02;100.00
28167;BME280;15455;53.376;-6.262;2022-07-01T02:14:03;101025.50;;;12.01;100.00
28167;BME280;15455;53.376;-6.262;2022-07-01T02:16:48;101023.75;;;12.00;100.00
28167;BME280;15455;53.376;-6.262;2022-07-01T02:19:33;101026.38;;;12.00;100.00
28167;BME280;15455;53.376;-6.262;2022-07-01T02:22:19;101022.03;;;11.99;100.00
28167;BME280;15455;53.376;-6.262;2022-07-01T02:25:05;101022.91;;;11.99;100.00
28167;BME280;15455;53.376;-6.262;2022-07-01T02:27:50;101022.03;;;12.02;100.00
28167;BME280;15455;53.376;-6.262;2022-07-01T02:30:36;101022.03;;;12.02;100.00
28167;BME280;15455;53.376;-6.262;2022-07-01T02:33:21;101025.47;;;12.04;100.00
28167;BME280;15455;53.376;-6.262;2022-07-01T02:36:07;101022.00;;;12.07;100.00
28167;BME280;15455;53.376;-6.262;2022-07-01T02:38:53;101019.38;;;12.08;100.00
28167;BME280;15455;53.376;-6.262;2022-07-01T02:41:38;101025.47;;;12.07;100.00
28167;BME280;15455;53.376;-6.262;2022-07-01T02:44:43;101023.72;;;12.09;100.00
28167;BME280;15455;53.376;-6.262;2022-07-01T02:47:36;101027.22;;;12.10;100.00
28167;BME280;15455;53.376;-6.262;2022-07-01T02:50:23;101024.59;;;12.11;100.00
28167;BME280;15455;53.376;-6.262;2022-07-01T02:53:15;101027.19;;;12.13;100.00
28167;BME280;15455;53.376;-6.262;2022-07-01T02:56:00;101028.94;;;12.12;100.00
28167;BME280;15455;53.376;-6.262;2022-07-01T02:58:45;101021.97;;;12.11;100.00
28167;BME280;15455;53.376;-6.262;2022-07-01T03:01:31;101024.59;;;12.11;100.00
28167;BME280;15455;53.376;-6.262;2022-07-01T03:04:17;101036.81;;;12.11;100.00
28167;BME280;15455;53.376;-6.262;2022-07-01T03:07:03;101034.19;;;12.11;100.00
28167;BME280;15455;53.376;-6.262;2022-07-01T03:09:49;101036.81;;;12.11;100.00
28167;BME280;15455;53.376;-6.262;2022-07-01T03:12:35;101033.31;;;12.12;100.00
28167;BME280;15455;53.376;-6.262;2022-07-01T03:15:21;101038.56;;;12.12;100.00
28167;BME280;15455;53.376;-6.262;2022-07-01T03:18:06;101028.97;;;12.08;100.00
28167;BME280;15455;53.376;-6.262;2022-07-01T03:20:51;101038.56;;;12.06;100.00
28167;BME280;15455;53.376;-6.262;2022-07-01T03:23:37;101031.59;;;12.02;100.00
28167;BME280;15455;53.376;-6.262;2022-07-01T03:26:22;101026.38;;;11.98;100.00
28167;BME280;15455;53.376;-6.262;2022-07-01T03:29:07;101032.50;;;11.97;100.00
28167;BME280;15455;53.376;-6.262;2022-07-01T03:31:53;101030.78;;;11.93;100.00
28167;BME280;15455;53.376;-6.262;2022-07-01T03:34:44;101029.00;;;11.91;100.00
28167;BME280;15455;53.376;-6.262;2022-07-01T03:37:30;101031.63;;;11.88;100.00
28167;BME280;15455;53.376;-6.262;2022-07-01T03:40:16;101027.25;;;11.88;100.00
28167;BME280;15455;53.376;-6.262;2022-07-01T03:43:02;101029.00;;;11.88;100.00
28167;BME280;15455;53.376;-6.262;2022-07-01T03:45:47;101040.38;;;11.82;100.00
28167;BME280;15455;53.376;-6.262;2022-07-01T03:48:33;101034.25;;;11.80;100.00
28167;BME280;15455;53.376;-6.262;2022-07-01T03:51:26;101033.41;;;11.76;100.00
28167;BME280;15455;53.376;-6.262;2022-07-01T03:54:12;101034.25;;;11.77;100.00
28167;BME280;15455;53.376;-6.262;2022-07-01T03:57:17;101032.53;;;11.79;100.00
28167;BME280;15455;53.376;-6.262;2022-07-01T04:00:05;101033.41;;;11.75;100.00
28167;BME280;15455;53.376;-6.262;2022-07-01T04:02:51;101032.53;;;11.74;100.00
28167;BME280;15455;53.376;-6.262;2022-07-01T04:05:37;101038.63;;;11.75;100.00
28167;BME280;15455;53.376;-6.262;2022-07-01T04:08:23;101039.50;;;11.75;100.00
28167;BME280;15455;53.376;-6.262;2022-07-01T04:11:08;101042.13;;;11.72;100.00
28167;BME280;15455;53.376;-6.262;2022-07-01T04:13:54;101054.34;;;11.72;100.00
28167;BME280;15455;53.376;-6.262;2022-07-01T04:16:41;101046.50;;;11.70;100.00
28167;BME280;15455;53.376;-6.262;2022-07-01T04:19:27;101049.13;;;11.70;100.00
28167;BME280;15455;53.376;-6.262;2022-07-01T04:22:12;101051.72;;;11.72;100.00
28167;BME280;15455;53.376;-6.262;2022-07-01T04:25:16;101054.34;;;11.73;100.00
28167;BME280;15455;53.376;-6.262;2022-07-01T04:28:02;101053.44;;;11.73;100.00
28167;BME280;15455;53.376;-6.262;2022-07-01T04:30:49;101049.97;;;11.74;100.00
28167;BME280;15455;53.376;-6.262;2022-07-01T04:33:34;101049.09;;;11.78;100.00
28167;BME280;15455;53.376;-6.262;2022-07-01T04:36:19;101051.69;;;11.82;100.00
28167;BME280;15455;53.376;-6.262;2022-07-01T04:39:05;101052.56;;;11.86;100.00
28167;BME280;15455;53.376;-6.262;2022-07-01T04:41:51;101053.41;;;11.87;100.00
28167;BME280;15455;53.376;-6.262;2022-07-01T04:44:45;101048.19;;;11.87;100.00
28167;BME280;15455;53.376;-6.262;2022-07-01T04:47:31;101049.94;;;11.91;100.00
28167;BME280;15455;53.376;-6.262;2022-07-01T04:50:17;101042.94;;;11.93;100.00
28167;BME280;15455;53.376;-6.262;2022-07-01T04:53:03;101040.34;;;11.97;100.00
28167;BME280;15455;53.376;-6.262;2022-07-01T04:55:48;101040.34;;;12.01;100.00
28167;BME280;15455;53.376;-6.262;2022-07-01T04:58:34;101047.28;;;12.02;100.00
28167;BME280;15455;53.376;-6.262;2022-07-01T05:01:19;101049.03;;;12.01;100.00
28167;BME280;15455;53.376;-6.262;2022-07-01T05:04:05;101042.94;;;12.02;100.00
28167;BME280;15455;53.376;-6.262;2022-07-01T05:06:51;101051.66;;;12.01;100.00
28167;BME280;15455;53.376;-6.262;2022-07-01T05:09:37;101055.16;;;12.05;100.00
28167;BME280;15455;53.376;-6.262;2022-07-01T05:12:22;101051.63;;;12.07;100.00
28167;BME280;15455;53.376;-6.262;2022-07-01T05:15:08;101055.13;;;12.09;100.00
28167;BME280;15455;53.376;-6.262;2022-07-01T05:17:54;101055.13;;;12.09;100.00
28167;BME280;15455;53.376;-6.262;2022-07-01T05:20:58;101053.38;;;12.11;100.00
28167;BME280;15455;53.376;-6.262;2022-07-01T05:24:03;101050.72;;;12.16;100.00
28167;BME280;15455;53.376;-6.262;2022-07-01T05:26:49;101057.69;;;12.19;100.00
28167;BME280;15455;53.376;-6.262;2022-07-01T05:29:34;101051.63;;;12.16;100.00
28167;BME280;15455;53.376;-6.262;2022-07-01T05:32:20;101051.63;;;12.16;100.00
28167;BME280;15455;53.376;-6.262;2022-07-01T05:35:06;101059.44;;;12.20;100.00
28167;BME280;15455;53.376;-6.262;2022-07-01T05:37:51;101055.06;;;12.20;100.00
28167;BME280;15455;53.376;-6.262;2022-07-01T05:40:37;101054.22;;;12.20;100.00
28167;BME280;15455;53.376;-6.262;2022-07-01T05:43:22;101050.72;;;12.22;100.00
28167;BME280;15455;53.376;-6.262;2022-07-01T05:46:07;101047.19;;;12.25;100.00
28167;BME280;15455;53.376;-6.262;2022-07-01T05:48:53;101055.06;;;12.23;100.00
28167;BME280;15455;53.376;-6.262;2022-07-01T05:51:39;101051.53;;;12.29;100.00
28167;BME280;15455;53.376;-6.262;2022-07-01T05:54:24;101048.06;;;12.30;100.00
28167;BME280;15455;53.376;-6.262;2022-07-01T05:57:10;101052.44;;;12.31;100.00
28167;BME280;15455;53.376;-6.262;2022-07-01T05:59:56;101056.75;;;12.32;100.00
28167;BME280;15455;53.376;-6.262;2022-07-01T06:02:41;101061.13;;;12.33;100.00
28167;BME280;15455;53.376;-6.262;2022-07-01T06:05:27;101058.50;;;12.33;100.00
28167;BME280;15455;53.376;-6.262;2022-07-01T06:08:15;101058.50;;;12.34;100.00
28167;BME280;15455;53.376;-6.262;2022-07-01T06:11:00;101053.25;;;12.34;100.00
28167;BME280;15455;53.376;-6.262;2022-07-01T06:13:46;101055.03;;;12.34;100.00
28167;BME280;15455;53.376;-6.262;2022-07-01T06:16:31;101055.00;;;12.36;100.00
28167;BME280;15455;53.376;-6.262;2022-07-01T06:19:17;101060.22;;;12.39;100.00
28167;BME280;15455;53.376;-6.262;2022-07-01T06:22:04;101055.84;;;12.44;100.00
28167;BME280;15455;53.376;-6.262;2022-07-01T06:24:49;101064.59;;;12.32;100.00
28167;BME280;15455;53.376;-6.262;2022-07-01T06:27:53;101062.88;;;12.34;100.00
28167;BME280;15455;53.376;-6.262;2022-07-01T06:30:38;101071.56;;;12.42;100.00
28167;BME280;15455;53.376;-6.262;2022-07-01T06:33:28;101074.13;;;12.51;100.00
28167;BME280;15455;53.376;-6.262;2022-07-01T06:36:16;101070.59;;;12.60;100.00
28167;BME280;15455;53.376;-6.262;2022-07-01T06:39:01;101069.75;;;12.58;100.00
28167;BME280;15455;53.376;-6.262;2022-07-01T06:41:47;101072.38;;;12.57;100.00
28167;BME280;15455;53.376;-6.262;2022-07-01T06:44:32;101062.75;;;12.56;100.00
28167;BME280;15455;53.376;-6.262;2022-07-01T06:47:18;101070.59;;;12.59;100.00
28167;BME280;15455;53.376;-6.262;2022-07-01T06:50:03;101070.63;;;12.56;100.00
28167;BME280;15455;53.376;-6.262;2022-07-01T06:52:50;101070.63;;;12.56;100.00
28167;BME280;15455;53.376;-6.262;2022-07-01T06:55:35;101074.09;;;12.56;100.00
28167;BME280;15455;53.376;-6.262;2022-07-01T06:58:21;101074.13;;;12.53;100.00
28167;BME280;15455;53.376;-6.262;2022-07-01T07:01:06;101072.38;;;12.57;100.00
28167;BME280;15455;53.376;-6.262;2022-07-01T07:03:52;101068.81;;;12.67;100.00
28167;BME280;15455;53.376;-6.262;2022-07-01T07:06:38;101066.16;;;12.70;100.00
28167;BME280;15455;53.376;-6.262;2022-07-01T07:09:24;101067.94;;;12.63;100.00
28167;BME280;15455;53.376;-6.262;2022-07-01T07:12:09;101062.69;;;12.65;100.00
28167;BME280;15455;53.376;-6.262;2022-07-01T07:14:55;101064.47;;;12.63;100.00
28167;BME280;15455;53.376;-6.262;2022-07-01T07:17:40;101068.75;;;12.73;100.00
28167;BME280;15455;53.376;-6.262;2022-07-01T07:20:27;101072.13;;;12.91;100.00
28167;BME280;15455;53.376;-6.262;2022-07-01T07:23:13;101070.31;;;13.02;100.00
28167;BME280;15455;53.376;-6.262;2022-07-01T07:25:59;101063.31;;;13.07;100.00
28167;BME280;15455;53.376;-6.262;2022-07-01T07:28:44;101058.84;;;13.17;100.00
28167;BME280;15455;53.376;-6.262;2022-07-01T07:31:30;101062.22;;;13.31;100.00
28167;BME280;15455;53.376;-6.262;2022-07-01T07:34:16;101057.84;;;13.36;100.00
28167;BME280;15455;53.376;-6.262;2022-07-01T07:37:01;101057.72;;;13.52;100.00
28167;BME280;15455;53.376;-6.262;2022-07-01T07:39:47;101058.34;;;13.74;100.00
28167;BME280;15455;53.376;-6.262;2022-07-01T07:42:33;101044.06;;;14.00;100.00
28167;BME280;15455;53.376;-6.262;2022-07-01T07:45:18;101051.53;;;14.32;100.00
28167;BME280;15455;53.376;-6.262;2022-07-01T07:48:05;101049.38;;;14.65;100.00
28167;BME280;15455;53.376;-6.262;2022-07-01T07:50:51;101045.47;;;14.92;100.00
28167;BME280;15455;53.376;-6.262;2022-07-01T07:53:37;101037.50;;;14.97;100.00
28167;BME280;15455;53.376;-6.262;2022-07-01T07:56:23;101033.94;;;15.01;100.00
28167;BME280;15455;53.376;-6.262;2022-07-01T07:59:08;101026.84;;;15.05;100.00
28167;BME280;15455;53.376;-6.262;2022-07-01T08:01:54;101025.97;;;15.06;100.00
28167;BME280;15455;53.376;-6.262;2022-07-01T08:04:40;101026.09;;;14.98;100.00
28167;BME280;15455;53.376;-6.262;2022-07-01T08:07:26;101027.84;;;14.98;100.00
28167;BME280;15455;53.376;-6.262;2022-07-01T08:10:12;101026.88;;;15.03;100.00
28167;BME280;15455;53.376;-6.262;2022-07-01T08:12:59;101036.69;;;14.93;100.00
28167;BME280;15455;53.376;-6.262;2022-07-01T08:15:49;101034.94;;;14.92;100.00
28167;BME280;15455;53.376;-6.262;2022-07-01T08:18:35;101028.78;;;14.95;100.00
28167;BME280;15455;53.376;-6.262;2022-07-01T08:21:21;101033.03;;;15.02;100.00
28167;BME280;15455;53.376;-6.262;2022-07-01T08:24:07;101041.75;;;15.04;100.00
28167;BME280;15455;53.376;-6.262;2022-07-01T08:26:52;101037.72;;;14.82;100.00
28167;BME280;15455;53.376;-6.262;2022-07-01T08:29:38;101044.09;;;14.67;100.00
28167;BME280;15455;53.376;-6.262;2022-07-01T08:32:24;101037.94;;;14.68;100.00
28167;BME280;15455;53.376;-6.262;2022-07-01T08:35:11;101050.97;;;14.75;100.00
28167;BME280;15455;53.376;-6.262;2022-07-01T08:37:57;101043.19;;;14.69;100.00
28167;BME280;15455;53.376;-6.262;2022-07-01T08:40:42;101044.78;;;14.80;100.00
28167;BME280;15455;53.376;-6.262;2022-07-01T08:43:28;101046.22;;;14.99;100.00
28167;BME280;15455;53.376;-6.262;2022-07-01T08:46:14;101042.50;;;15.13;100.00
28167;BME280;15455;53.376;-6.262;2022-07-01T08:48:59;101037.81;;;15.32;100.00
28167;BME280;15455;53.376;-6.262;2022-07-01T08:51:44;101037.69;;;15.38;100.00
28167;BME280;15455;53.376;-6.262;2022-07-01T08:54:30;101041.72;;;15.57;100.00
28167;BME280;15455;53.376;-6.262;2022-07-01T08:57:20;101035.66;;;15.52;100.00
28167;BME280;15455;53.376;-6.262;2022-07-01T09:00:07;101030.47;;;15.49;100.00
28167;BME280;15455;53.376;-6.262;2022-07-01T09:02:58;101028.44;;;15.63;100.00
28167;BME280;15455;53.376;-6.262;2022-07-01T09:05:50;101026.63;;;15.66;99.01
28167;BME280;15455;53.376;-6.262;2022-07-01T09:08:36;101018.38;;;15.87;97.36
28167;BME280;15455;53.376;-6.262;2022-07-01T09:11:24;101018.81;;;16.09;98.61
28167;BME280;15455;53.376;-6.262;2022-07-01T09:14:14;101023.09;;;16.15;93.61
28167;BME280;15455;53.376;-6.262;2022-07-01T09:17:04;101021.66;;;16.39;94.73
28167;BME280;15455;53.376;-6.262;2022-07-01T09:19:51;101027.66;;;16.46;92.92
28167;BME280;15455;53.376;-6.262;2022-07-01T09:22:37;101030.00;;;16.60;91.41
28167;BME280;15455;53.376;-6.262;2022-07-01T09:25:30;101015.09;;;16.59;88.72
28167;BME280;15455;53.376;-6.262;2022-07-01T09:28:16;101006.41;;;16.54;87.88
28167;BME280;15455;53.376;-6.262;2022-07-01T09:31:02;101019.19;;;16.71;90.17
28167;BME280;15455;53.376;-6.262;2022-07-01T09:34:03;101016.91;;;16.57;86.40
28167;BME280;15455;53.376;-6.262;2022-07-01T09:36:56;101013.53;;;16.50;86.75
28167;BME280;15455;53.376;-6.262;2022-07-01T09:39:49;101006.88;;;16.34;88.21
28167;BME280;15455;53.376;-6.262;2022-07-01T09:42:44;101005.25;;;16.28;87.65
28167;BME280;15455;53.376;-6.262;2022-07-01T09:45:34;101012.53;;;16.15;86.44
28167;BME280;15455;53.376;-6.262;2022-07-01T09:48:20;101012.63;;;16.12;87.76
28167;BME280;15455;53.376;-6.262;2022-07-01T09:51:09;101017.84;;;16.13;87.26
28167;BME280;15455;53.376;-6.262;2022-07-01T09:53:59;101022.16;;;16.16;87.05
28167;BME280;15455;53.376;-6.262;2022-07-01T09:56:45;101015.13;;;16.18;86.34
28167;BME280;15455;53.376;-6.262;2022-07-01T09:59:36;101021.09;;;16.26;86.70
28167;BME280;15455;53.376;-6.262;2022-07-01T10:02:22;101012.44;;;16.20;86.22
28167;BME280;15455;53.376;-6.262;2022-07-01T10:05:17;101007.84;;;16.29;87.49
28167;BME280;15455;53.376;-6.262;2022-07-01T10:08:30;101004.19;;;16.37;87.46
28167;BME280;15455;53.376;-6.262;2022-07-01T10:11:48;100993.16;;;16.58;82.67
28167;BME280;15455;53.376;-6.262;2022-07-01T10:14:38;100996.88;;;16.86;82.25
28167;BME280;15455;53.376;-6.262;2022-07-01T10:17:30;100989.34;;;17.08;79.96
28167;BME280;15455;53.376;-6.262;2022-07-01T10:20:19;100987.94;;;17.27;79.44
28167;BME280;15455;53.376;-6.262;2022-07-01T10:23:08;100995.63;;;17.36;77.91
28167;BME280;15455;53.376;-6.262;2022-07-01T10:26:02;100996.97;;;17.51;78.90
28167;BME280;15455;53.376;-6.262;2022-07-01T10:28:48;100991.47;;;17.59;81.73
28167;BME280;15455;53.376;-6.262;2022-07-01T10:31:37;100989.91;;;17.52;76.22
28167;BME280;15455;53.376;-6.262;2022-07-01T10:34:34;100984.47;;;17.58;77.87
28167;BME280;15455;53.376;-6.262;2022-07-01T10:37:22;100985.47;;;17.54;78.41
28167;BME280;15455;53.376;-6.262;2022-07-01T10:40:08;100980.09;;;17.57;79.08
28167;BME280;15455;53.376;-6.262;2022-07-01T10:42:58;100978.25;;;17.59;76.83
28167;BME280;15455;53.376;-6.262;2022-07-01T10:46:01;100972.00;;;17.63;74.21
28167;BME280;15455;53.376;-6.262;2022-07-01T10:48:48;100969.41;;;17.62;76.34
28167;BME280;15455;53.376;-6.262;2022-07-01T10:51:50;100974.69;;;17.62;77.35
28167;BME280;15455;53.376;-6.262;2022-07-01T11:05:54;100971.13;;;17.96;92.97
28167;BME280;15455;53.376;-6.262;2022-07-01T11:08:47;100957.31;;;18.16;91.14
28167;BME280;15455;53.376;-6.262;2022-07-01T11:11:33;100959.59;;;18.27;92.17
28167;BME280;15455;53.376;-6.262;2022-07-01T11:14:19;100954.09;;;18.61;92.06
28167;BME280;15455;53.376;-6.262;2022-07-01T11:17:08;100944.25;;;18.93;87.51
28167;BME280;15455;53.376;-6.262;2022-07-01T11:19:56;100954.94;;;19.17;87.27
28167;BME280;15455;53.376;-6.262;2022-07-01T11:22:43;100948.00;;;19.13;88.24
28167;BME280;15455;53.376;-6.262;2022-07-01T11:25:29;100947.94;;;18.89;86.66
28167;BME280;15455;53.376;-6.262;2022-07-01T11:28:15;100938.94;;;18.39;87.23
28167;BME280;15455;53.376;-6.262;2022-07-01T11:31:00;100937.28;;;18.09;88.48
28167;BME280;15455;53.376;-6.262;2022-07-01T11:33:49;100938.50;;;17.97;90.26
28167;BME280;15455;53.376;-6.262;2022-07-01T11:36:35;100939.59;;;17.90;90.79
28167;BME280;15455;53.376;-6.262;2022-07-01T11:39:39;100941.31;;;17.91;92.82
28167;BME280;15455;53.376;-6.262;2022-07-01T11:42:27;100947.41;;;18.22;91.25
28167;BME280;15455;53.376;-6.262;2022-07-01T11:45:30;100933.34;;;18.49;89.54
28167;BME280;15455;53.376;-6.262;2022-07-01T11:51:24;100928.78;;;18.54;87.46
28167;BME280;15455;53.376;-6.262;2022-07-01T11:54:20;100921.88;;;18.50;85.43
28167;BME280;15455;53.376;-6.262;2022-07-01T11:57:16;100926.88;;;18.59;85.57
28167;BME280;15455;53.376;-6.262;2022-07-01T12:00:11;100921.25;;;18.68;85.57
28167;BME280;15455;53.376;-6.262;2022-07-01T12:02:57;100920.13;;;18.50;85.54
28167;BME280;15455;53.376;-6.262;2022-07-01T12:05:43;100921.91;;;18.48;77.77
28167;BME280;15455;53.376;-6.262;2022-07-01T12:08:29;100910.13;;;18.58;65.43
28167;BME280;15455;53.376;-6.262;2022-07-01T12:11:16;100918.84;;;18.62;55.63
28167;BME280;15455;53.376;-6.262;2022-07-01T12:14:02;100915.97;;;19.20;58.76
28167;BME280;15455;53.376;-6.262;2022-07-01T12:16:51;100913.94;;;20.00;59.83
28167;BME280;15455;53.376;-6.262;2022-07-01T12:19:40;100909.84;;;20.37;54.84
28167;BME280;15455;53.376;-6.262;2022-07-01T12:22:26;100911.28;;;20.66;53.01
28167;BME280;15455;53.376;-6.262;2022-07-01T12:25:14;100905.22;;;21.05;50.13
28167;BME280;15455;53.376;-6.262;2022-07-01T12:28:00;100906.25;;;21.42;51.19
28167;BME280;15455;53.376;-6.262;2022-07-01T12:30:46;100911.47;;;21.44;48.65
28167;BME280;15455;53.376;-6.262;2022-07-01T12:33:33;100907.50;;;21.33;50.44
28167;BME280;15455;53.376;-6.262;2022-07-01T12:36:19;100903.59;;;21.42;48.13
28167;BME280;15455;53.376;-6.262;2022-07-01T12:39:08;100898.59;;;21.74;53.02
28167;BME280;15455;53.376;-6.262;2022-07-01T12:41:54;100898.53;;;21.76;47.83
28167;BME280;15455;53.376;-6.262;2022-07-01T12:44:44;100902.63;;;20.83;45.72
28167;BME280;15455;53.376;-6.262;2022-07-01T12:47:33;100902.25;;;20.50;48.98
28167;BME280;15455;53.376;-6.262;2022-07-01T12:50:27;100895.47;;;19.98;47.06
28167;BME280;15455;53.376;-6.262;2022-07-01T12:53:19;100896.19;;;19.80;53.70
28167;BME280;15455;53.376;-6.262;2022-07-01T12:56:05;100893.03;;;19.68;53.02
28167;BME280;15455;53.376;-6.262;2022-07-01T12:58:51;100896.63;;;19.43;52.54
28167;BME280;15455;53.376;-6.262;2022-07-01T13:01:37;100894.22;;;19.37;51.40
28167;BME280;15455;53.376;-6.262;2022-07-01T13:04:27;100893.59;;;19.54;54.32
28167;BME280;15455;53.376;-6.262;2022-07-01T13:07:13;100886.78;;;19.71;55.26
28167;BME280;15455;53.376;-6.262;2022-07-01T13:09:58;100884.75;;;19.79;55.54
28167;BME280;15455;53.376;-6.262;2022-07-01T13:12:45;100890.13;;;19.76;57.53
28167;BME280;15455;53.376;-6.262;2022-07-01T13:15:33;100884.69;;;19.55;58.10
28167;BME280;15455;53.376;-6.262;2022-07-01T13:18:19;100891.56;;;19.37;60.86
28167;BME280;15455;53.376;-6.262;2022-07-01T13:21:05;100884.09;;;19.00;67.50
28167;BME280;15455;53.376;-6.262;2022-07-01T13:23:50;100889.53;;;18.68;72.50
28167;BME280;15455;53.376;-6.262;2022-07-01T13:26:54;100893.69;;;18.49;78.23
28167;BME280;15455;53.376;-6.262;2022-07-01T13:29:40;100893.91;;;18.16;73.74
28167;BME280;15455;53.376;-6.262;2022-07-01T13:32:26;100892.81;;;18.23;81.99
28167;BME280;15455;53.376;-6.262;2022-07-01T13:35:12;100891.97;;;18.21;76.89
28167;BME280;15455;53.376;-6.262;2022-07-01T13:37:58;100879.22;;;18.34;76.09
28167;BME280;15455;53.376;-6.262;2022-07-01T13:40:44;100891.72;;;18.55;75.45
28167;BME280;15455;53.376;-6.262;2022-07-01T13:43:31;100883.63;;;18.60;73.78
28167;BME280;15455;53.376;-6.262;2022-07-01T13:46:16;100893.91;;;18.69;73.43
28167;BME280;15455;53.376;-6.262;2022-07-01T13:49:02;100889.66;;;18.65;71.45
28167;BME280;15455;53.376;-6.262;2022-07-01T13:51:48;100886.75;;;18.46;64.36
28167;BME280;15455;53.376;-6.262;2022-07-01T13:54:34;100887.78;;;18.14;67.14
28167;BME280;15455;53.376;-6.262;2022-07-01T13:57:20;100895.75;;;17.84;71.48
28167;BME280;15455;53.376;-6.262;2022-07-01T14:00:06;100894.13;;;17.48;74.08
28167;BME280;15455;53.376;-6.262;2022-07-01T14:02:53;100892.75;;;17.04;78.20
28167;BME280;15455;53.376;-6.262;2022-07-01T14:05:38;100898.84;;;16.70;84.57
28167;BME280;15455;53.376;-6.262;2022-07-01T14:08:24;100893.53;;;16.37;86.51
28167;BME280;15455;53.376;-6.262;2022-07-01T14:11:12;100901.72;;;16.24;89.29
28167;BME280;15455;53.376;-6.262;2022-07-01T14:13:58;100902.19;;;16.04;89.24
28167;BME280;15455;53.376;-6.262;2022-07-01T14:16:43;100891.88;;;15.95;93.96
28167;BME280;15455;53.376;-6.262;2022-07-01T14:19:29;100895.34;;;15.95;96.92
28167;BME280;15455;53.376;-6.262;2022-07-01T14:22:15;100900.50;;;16.00;98.98
28167;BME280;15455;53.376;-6.262;2022-07-01T14:25:00;100898.47;;;16.13;100.00
28167;BME280;15455;53.376;-6.262;2022-07-01T14:27:46;100890.81;;;16.04;100.00
28167;BME280;15455;53.376;-6.262;2022-07-01T14:30:32;100896.97;;;16.03;100.00